Time;durP1;ratioP1;P1;durP2;ratioP2;P2;SDS_P1;SDS_P2;PMS_P1;PMS_P2;Temp;Humidity;BMP_temperature;BMP_pressure;BME280_temperature;BME280_humidity;BME280_pressure;Samples;Min_cycle;Max_cycle;Signal;HPM_P1;HPM_P2
2022/03/27 00:02:07;;;;;;;28.40;12.70;;;;;;;11.38;41.45;101514.56;4973422;28;20507;-78
2022/03/27 00:04:32;;;;;;;25.88;12.00;;;;;;;11.36;41.15;101517.50;4976353;28;20461;-77
2022/03/27 00:06:57;;;;;;;25.77;12.77;;;;;;;11.26;41.19;101522.59;4961343;28;20450;-78
2022/03/27 00:09:23;;;;;;;24.37;12.73;;;;;;;11.21;42.21;101524.34;4980318;28;21057;-77
2022/03/27 00:11:48;;;;;;;25.17;12.37;;;;;;;11.17;42.04;101517.69;4976734;28;20447;-77
2022/03/27 00:14:13;;;;;;;23.87;12.30;;;;;;;11.17;42.12;101518.53;4982445;28;20415;-77
2022/03/27 00:16:39;;;;;;;26.33;12.03;;;;;;;11.14;42.32;101513.53;4981556;28;20456;-77
2022/03/27 00:19:04;;;;;;;26.23;12.67;;;;;;;11.11;42.18;101514.00;4971054;28;20480;-78
2022/03/27 00:21:29;;;;;;;24.35;12.05;;;;;;;11.08;42.14;101519.03;4981665;28;20507;-78
2022/03/27 00:23:55;;;;;;;22.23;11.97;;;;;;;11.05;42.28;101519.47;4976914;28;20423;-77
2022/03/27 00:26:21;;;;;;;22.45;12.68;;;;;;;10.98;42.57;101515.97;4961104;28;20911;-77
2022/03/27 00:28:48;;;;;;;21.45;12.82;;;;;;;10.90;43.53;101517.09;4984014;28;20484;-77
2022/03/27 00:31:14;;;;;;;23.23;11.93;;;;;;;10.80;43.65;101512.16;4982310;28;20996;-77
2022/03/27 00:33:41;;;;;;;25.83;12.77;;;;;;;10.68;43.79;101513.09;4983921;28;20416;-78
2022/03/27 00:36:08;;;;;;;24.55;12.55;;;;;;;10.59;44.42;101514.41;4975378;28;20402;-77
2022/03/27 00:38:33;;;;;;;27.63;12.80;;;;;;;10.50;44.06;101523.88;4961363;28;20487;-78
2022/03/27 00:41:01;;;;;;;26.13;12.87;;;;;;;10.45;44.18;101515.53;4981881;28;20918;-77
2022/03/27 00:43:27;;;;;;;31.15;13.27;;;;;;;10.45;44.44;101519.09;4976043;28;20898;-77
2022/03/27 00:45:53;;;;;;;26.67;14.25;;;;;;;10.50;43.68;101508.44;4977558;28;20450;-77
2022/03/27 00:48:21;;;;;;;25.48;12.85;;;;;;;10.53;43.40;101513.44;4982355;28;20932;-77
2022/03/27 00:50:47;;;;;;;35.03;12.98;;;;;;;10.53;43.40;101513.44;4979778;28;20412;-77
2022/03/27 00:53:13;;;;;;;26.40;13.20;;;;;;;10.59;43.52;101507.13;4982210;28;20780;-77
2022/03/27 00:55:38;;;;;;;26.10;13.55;;;;;;;10.66;43.49;101504.38;4974064;28;20927;-78
2022/03/27 00:58:04;;;;;;;27.37;13.20;;;;;;;10.67;43.39;101508.75;4980229;28;20753;-77
2022/03/27 01:00:39;;;;;;;22.83;13.43;;;;;;;10.67;43.55;101506.84;4970204;28;20911;-77
2022/03/27 01:03:15;;;;;;;28.95;13.25;;;;;;;10.68;43.90;101496.81;4983621;28;20414;-77
2022/03/27 01:05:42;;;;;;;25.95;13.77;;;;;;;10.65;44.17;101503.53;4977907;28;20434;-77
2022/03/27 01:08:11;;;;;;;25.20;13.45;;;;;;;10.60;44.04;101497.94;4981196;28;20930;-77
2022/03/27 01:10:37;;;;;;;24.45;13.32;;;;;;;10.56;44.20;101498.59;4966571;28;20423;-77
2022/03/27 01:13:07;;;;;;;27.25;14.65;;;;;;;10.49;45.10;101497.81;4970377;28;20437;-77
2022/03/27 01:15:42;;;;;;;26.02;13.20;;;;;;;10.48;44.96;101483.41;4975091;28;20489;-77
2022/03/27 01:18:08;;;;;;;24.75;13.23;;;;;;;10.49;44.48;101484.25;4979887;28;20416;-77
2022/03/27 01:20:40;;;;;;;23.25;12.65;;;;;;;10.49;44.62;101493.22;4958141;28;20946;-77
2022/03/27 01:23:11;;;;;;;27.50;14.02;;;;;;;10.43;43.92;101490.56;4980231;28;20544;-77
2022/03/27 01:25:38;;;;;;;27.63;13.50;;;;;;;10.33;44.34;101496.47;4976230;28;20764;-78
2022/03/27 01:28:05;;;;;;;25.00;13.18;;;;;;;10.27;44.44;101486.50;4974249;28;20416;-77
2022/03/27 01:30:30;;;;;;;25.58;13.55;;;;;;;10.23;44.75;101493.41;4976612;28;20495;-77
2022/03/27 01:32:56;;;;;;;22.13;13.52;;;;;;;10.18;44.76;101491.31;4980087;28;20538;-78
2022/03/27 01:35:22;;;;;;;26.13;13.27;;;;;;;10.20;44.73;101488.41;4960415;28;20422;-77
2022/03/27 01:37:48;;;;;;;28.27;13.73;;;;;;;10.18;44.88;101487.78;4979428;28;20416;-77
2022/03/27 01:40:15;;;;;;;24.75;12.32;;;;;;;10.14;45.34;101490.09;4974830;28;20448;-77
2022/03/27 01:42:40;;;;;;;24.80;13.73;;;;;;;10.16;45.94;101482.59;4982162;28;20432;-77
2022/03/27 01:45:06;;;;;;;27.37;12.47;;;;;;;10.14;45.29;101479.25;4979358;28;20410;-77
2022/03/27 01:47:32;;;;;;;32.20;15.15;;;;;;;10.09;45.75;101481.78;4974811;28;20892;-77
2022/03/27 01:49:57;;;;;;;28.30;13.33;;;;;;;10.04;45.34;101475.34;4973720;28;20499;-77
2022/03/27 01:52:23;;;;;;;25.90;14.23;;;;;;;10.03;45.55;101474.50;4972114;28;20461;-77
2022/03/27 01:54:48;;;;;;;25.45;13.10;;;;;;;9.94;45.48;101473.13;4981548;28;20418;-78
2022/03/27 01:57:13;;;;;;;27.87;14.13;;;;;;;9.89;45.83;101473.75;4982211;28;20778;-77
2022/03/27 01:59:39;;;;;;;23.58;13.15;;;;;;;9.89;46.02;101473.75;4974263;28;20419;-77
2022/03/27 02:02:04;;;;;;;22.57;12.27;;;;;;;9.94;46.60;101467.69;4975401;28;20420;-77
2022/03/27 02:04:30;;;;;;;29.83;13.90;;;;;;;9.96;46.60;101472.88;4973500;28;20515;-77
2022/03/27 02:06:55;;;;;;;27.73;13.95;;;;;;;9.96;46.50;101472.88;4966799;28;20420;-78
2022/03/27 02:09:21;;;;;;;31.63;14.10;;;;;;;9.91;46.57;101473.53;4973971;28;20896;-77
2022/03/27 02:11:46;;;;;;;26.50;13.40;;;;;;;9.88;46.89;101472.06;4962274;28;20491;-77
2022/03/27 02:14:11;;;;;;;24.33;13.33;;;;;;;9.85;47.09;101477.09;4945233;28;20419;-77
2022/03/27 02:16:38;;;;;;;28.53;14.53;;;;;;;9.86;46.41;101473.34;4983460;28;20423;-77
2022/03/27 02:19:09;;;;;;;22.50;13.30;;;;;;;9.87;46.69;101475.84;4976885;28;20916;-76
2022/03/27 02:21:35;;;;;;;26.08;13.95;;;;;;;9.82;47.09;101463.97;4970087;28;20454;-77
2022/03/27 02:24:03;;;;;;;28.88;13.32;;;;;;;9.76;47.18;101467.56;4977405;28;20410;-77
2022/03/27 02:26:32;;;;;;;28.95;13.23;;;;;;;9.75;47.29;101474.84;4977968;28;20468;-77
2022/03/27 02:28:57;;;;;;;28.85;13.68;;;;;;;9.68;47.17;101479.44;4976485;28;20474;-78
2022/03/27 02:31:22;;;;;;;26.37;13.13;;;;;;;9.60;47.35;101470.75;4978376;28;20404;-77
2022/03/27 02:33:48;;;;;;;23.53;12.93;;;;;;;9.65;47.71;101474.47;4971369;28;20408;-77
2022/03/27 02:36:14;;;;;;;26.45;13.48;;;;;;;9.69;47.13;101472.16;4973356;28;20411;-77
2022/03/27 02:38:40;;;;;;;27.73;13.75;;;;;;;9.71;46.42;101473.63;4980996;28;20477;-77
2022/03/27 02:41:06;;;;;;;29.27;13.23;;;;;;;9.74;46.74;101478.63;4981932;28;20446;-77
2022/03/27 02:43:32;;;;;;;26.25;13.65;;;;;;;9.68;46.38;101478.66;4976330;28;20769;-77
2022/03/27 02:45:58;;;;;;;27.45;13.15;;;;;;;9.69;46.41;101474.88;4974192;28;20426;-77
2022/03/27 02:48:23;;;;;;;23.50;13.97;;;;;;;9.74;46.64;101478.63;4973278;28;20958;-77
2022/03/27 02:50:49;;;;;;;25.10;13.40;;;;;;;9.76;46.31;101481.94;4978870;28;20417;-77
2022/03/27 02:53:14;;;;;;;27.58;14.32;;;;;;;9.71;46.43;101478.22;4976597;28;20410;-77
2022/03/27 02:55:39;;;;;;;25.70;14.07;;;;;;;9.69;47.65;101483.00;4975412;28;20910;-77
2022/03/27 02:58:05;;;;;;;25.63;13.77;;;;;;;9.64;47.62;101478.25;4973792;28;20438;-77
2022/03/27 03:00:31;;;;;;;24.20;13.33;;;;;;;9.64;46.79;101485.53;4980117;28;20445;-77
2022/03/27 03:02:57;;;;;;;20.93;13.53;;;;;;;9.60;47.00;101479.69;4967200;28;20944;-77
2022/03/27 03:05:22;;;;;;;26.27;13.93;;;;;;;9.58;47.08;101478.25;4942182;28;20446;-77
2022/03/27 03:07:48;;;;;;;20.53;12.23;;;;;;;9.58;47.45;101481.78;4969784;28;21021;-77
2022/03/27 03:10:14;;;;;;;24.15;13.55;;;;;;;9.62;47.39;101484.88;4961102;28;20421;-77
2022/03/27 03:12:40;;;;;;;29.93;13.40;;;;;;;9.58;47.73;101481.78;4974096;28;20788;-77
2022/03/27 03:15:06;;;;;;;24.50;13.90;;;;;;;9.52;47.73;101479.94;4964786;28;20972;-77
2022/03/27 03:17:31;;;;;;;25.67;13.82;;;;;;;9.50;47.30;101481.19;4967138;28;20453;-77
2022/03/27 03:19:57;;;;;;;28.30;13.00;;;;;;;9.51;47.51;101486.41;4961479;28;20436;-77
2022/03/27 03:22:22;;;;;;;27.47;14.30;;;;;;;9.52;47.60;101481.78;4979312;28;20844;-77
2022/03/27 03:24:47;;;;;;;27.30;14.27;;;;;;;9.47;48.19;101477.03;4978832;28;20921;-77
2022/03/27 03:27:13;;;;;;;22.83;13.05;;;;;;;9.45;47.71;101472.91;4988099;28;20426;-77
2022/03/27 03:29:38;;;;;;;24.53;13.57;;;;;;;9.44;48.25;101480.19;4958364;28;20415;-77
2022/03/27 03:32:04;;;;;;;25.03;12.90;;;;;;;9.34;47.96;101480.63;4978544;28;20458;-77
2022/03/27 03:34:29;;;;;;;23.88;13.38;;;;;;;9.34;48.25;101472.50;4964771;28;20420;-77
2022/03/27 03:36:55;;;;;;;26.70;13.20;;;;;;;9.30;47.95;101475.84;4978741;28;20868;-77
2022/03/27 03:39:20;;;;;;;27.17;14.40;;;;;;;9.31;48.70;101486.47;4976791;28;20468;-77
2022/03/27 03:41:45;;;;;;;23.10;13.97;;;;;;;9.27;48.50;101478.97;4979762;28;20891;-77
2022/03/27 03:44:11;;;;;;;22.38;12.60;;;;;;;9.27;48.22;101477.09;4976565;28;20498;-77
2022/03/27 03:46:36;;;;;;;22.13;12.90;;;;;;;9.30;48.84;101478.53;4980513;28;20564;-77
2022/03/27 03:49:06;;;;;;;21.37;12.90;;;;;;;9.26;49.08;101478.13;4981870;28;20408;-77
2022/03/27 03:51:35;;;;;;;23.88;13.50;;;;;;;9.25;49.04;101479.16;4957700;28;20415;-76
2022/03/27 03:54:07;;;;;;;25.67;14.05;;;;;;;9.19;48.68;101481.88;4973679;28;21834;-77
2022/03/27 03:56:33;;;;;;;25.10;13.82;;;;;;;9.16;48.89;101479.59;4976188;28;20877;-77
2022/03/27 03:58:58;;;;;;;30.63;13.60;;;;;;;9.16;49.61;101479.59;4963766;28;20410;-77
2022/03/27 04:01:24;;;;;;;31.10;13.83;;;;;;;9.09;49.10;101482.31;4979771;28;20488;-77
2022/03/27 04:03:49;;;;;;;29.40;14.57;;;;;;;9.06;49.34;101488.16;4982043;28;20414;-77
2022/03/27 04:06:15;;;;;;;26.23;13.67;;;;;;;9.06;49.10;101484.59;4984610;28;20819;-77
2022/03/27 04:08:40;;;;;;;30.90;13.70;;;;;;;9.01;49.37;101482.56;4983200;28;20418;-77
2022/03/27 04:11:05;;;;;;;26.53;14.27;;;;;;;8.95;49.37;101482.56;4983067;28;20930;-77
2022/03/27 04:13:30;;;;;;;28.03;13.20;;;;;;;8.90;49.84;101485.03;4981328;28;20421;-77
2022/03/27 04:15:56;;;;;;;23.53;13.23;;;;;;;8.94;50.00;101480.88;4982593;28;20415;-76
2022/03/27 04:18:21;;;;;;;31.23;14.70;;;;;;;8.97;48.96;101481.28;4978869;28;20519;-77
2022/03/27 04:20:47;;;;;;;26.27;14.40;;;;;;;9.00;49.52;101483.56;4976721;28;20407;-77
2022/03/27 04:23:13;;;;;;;21.63;12.77;;;;;;;9.02;48.97;101486.09;4981407;28;20419;-77
2022/03/27 04:25:39;;;;;;;28.00;13.93;;;;;;;9.01;49.35;101484.41;4999107;28;20426;-77
2022/03/27 04:28:06;;;;;;;27.30;14.80;;;;;;;8.93;49.37;101487.31;5008820;28;20403;-77
2022/03/27 04:30:32;;;;;;;26.70;15.63;;;;;;;8.92;49.62;101480.28;4999270;28;20448;-77
2022/03/27 04:32:57;;;;;;;23.83;13.70;;;;;;;8.92;49.93;101483.81;5001821;28;20994;-77
2022/03/27 04:35:23;;;;;;;23.97;14.00;;;;;;;8.93;49.66;101481.91;5001528;28;20434;-77
2022/03/27 04:37:48;;;;;;;27.03;14.00;;;;;;;8.91;49.71;101484.00;5008988;28;20402;-77
2022/03/27 04:40:14;;;;;;;27.73;15.05;;;;;;;8.90;50.21;101485.88;4987087;28;20409;-77
2022/03/27 04:42:42;;;;;;;28.73;14.77;;;;;;;8.90;49.89;101485.03;5003690;28;20452;-77
2022/03/27 04:45:08;;;;;;;24.38;13.90;;;;;;;8.90;49.80;101480.47;4993010;28;20401;-77
2022/03/27 04:47:34;;;;;;;24.77;14.05;;;;;;;8.85;50.73;101483.81;4986768;28;20771;-77
2022/03/27 04:50:02;;;;;;;25.97;15.10;;;;;;;8.82;50.84;101491.50;5002357;28;20407;-77
2022/03/27 04:52:27;;;;;;;27.77;14.23;;;;;;;8.80;50.78;101480.88;4987156;28;20454;-77
2022/03/27 04:54:53;;;;;;;27.55;14.48;;;;;;;8.79;50.75;101481.91;5005211;28;20458;-77
2022/03/27 04:57:19;;;;;;;22.42;13.98;;;;;;;8.74;51.18;101492.53;4993570;28;20426;-76
2022/03/27 04:59:44;;;;;;;27.42;14.38;;;;;;;8.73;50.86;101490.03;5004882;28;20484;-77
2022/03/27 05:02:10;;;;;;;22.70;13.97;;;;;;;8.62;51.40;101496.91;4994686;28;20505;-77
2022/03/27 05:04:37;;;;;;;34.33;15.02;;;;;;;8.52;51.76;101495.66;4993733;28;20454;-77
2022/03/27 05:07:03;;;;;;;28.10;15.65;;;;;;;8.52;50.98;101493.78;4994989;28;20427;-77
2022/03/27 05:09:29;;;;;;;27.20;15.77;;;;;;;8.46;51.25;101496.47;4994978;28;20441;-77
2022/03/27 05:11:55;;;;;;;25.33;14.40;;;;;;;8.43;51.77;101500.41;4996117;28;20493;-77
2022/03/27 05:14:20;;;;;;;27.85;15.10;;;;;;;8.44;51.53;101498.53;4998037;28;20825;-77
2022/03/27 05:16:46;;;;;;;25.30;15.35;;;;;;;8.40;51.83;101498.09;4993748;28;20422;-77
2022/03/27 05:19:11;;;;;;;26.67;14.40;;;;;;;8.34;52.14;101499.78;4994028;28;20418;-76
2022/03/27 05:21:37;;;;;;;26.10;14.57;;;;;;;8.26;52.36;101499.09;4996801;28;20414;-77
2022/03/27 05:24:02;;;;;;;25.30;15.10;;;;;;;8.36;52.42;101498.75;4992005;28;20483;-77
2022/03/27 05:26:27;;;;;;;23.43;14.03;;;;;;;8.42;51.88;101496.06;4997530;28;20428;-77
2022/03/27 05:28:54;;;;;;;26.50;15.83;;;;;;;8.48;52.19;101499.78;5006571;28;20446;-77
2022/03/27 05:31:20;;;;;;;28.20;14.53;;;;;;;8.50;52.26;101492.28;4985579;28;22892;-77
2022/03/27 05:33:45;;;;;;;30.23;15.82;;;;;;;8.47;52.29;101492.72;4995934;28;20418;-77
2022/03/27 05:36:11;;;;;;;23.90;14.40;;;;;;;8.42;52.46;101498.75;4984675;28;20410;-77
2022/03/27 05:38:39;;;;;;;32.10;15.07;;;;;;;8.44;52.93;101506.63;5005680;28;20404;-78
2022/03/27 05:41:06;;;;;;;27.50;15.70;;;;;;;8.50;52.53;101503.09;5009436;28;20882;-77
2022/03/27 05:43:32;;;;;;;26.65;14.27;;;;;;;8.45;52.59;101511.00;4999385;28;20416;-77
2022/03/27 05:45:58;;;;;;;26.47;14.93;;;;;;;8.40;52.65;101510.81;4992606;28;20412;-77
2022/03/27 05:48:23;;;;;;;28.38;15.57;;;;;;;8.46;52.38;101510.81;5003224;28;20396;-77
2022/03/27 05:50:48;;;;;;;24.30;14.90;;;;;;;8.47;53.05;101520.56;4998996;28;20539;-77
2022/03/27 05:53:15;;;;;;;21.53;14.23;;;;;;;8.55;52.76;101516.84;4999373;28;20416;-77
2022/03/27 05:55:41;;;;;;;24.38;14.27;;;;;;;8.57;52.49;101521.00;4990637;28;20433;-77
2022/03/27 05:58:07;;;;;;;31.73;15.93;;;;;;;8.61;52.61;101527.66;4995794;28;20410;-77
2022/03/27 06:00:33;;;;;;;25.45;15.50;;;;;;;8.61;52.71;101524.97;4998590;28;20429;-77
2022/03/27 06:02:59;;;;;;;24.33;14.43;;;;;;;8.71;52.74;101527.25;4997307;28;20406;-76
2022/03/27 06:05:24;;;;;;;27.42;15.52;;;;;;;8.71;52.47;101524.56;4998468;28;20449;-77
2022/03/27 06:07:55;;;;;;;21.00;14.90;;;;;;;8.79;52.26;101525.16;4982826;28;20430;-77
2022/03/27 06:10:27;;;;;;;23.42;15.13;;;;;;;8.80;52.77;101532.25;4996637;28;20417;-77
2022/03/27 06:12:53;;;;;;;26.52;17.10;;;;;;;8.80;52.67;101534.09;4999144;28;20461;-77
2022/03/27 06:15:19;;;;;;;31.65;16.52;;;;;;;8.91;52.55;101530.81;4973914;28;20413;-77
2022/03/27 06:17:47;;;;;;;27.77;15.73;;;;;;;8.95;52.60;101525.81;5000521;28;20426;-77
2022/03/27 06:20:15;;;;;;;31.05;15.57;;;;;;;9.07;52.03;101533.09;4996716;28;20411;-78
2022/03/27 06:22:42;;;;;;;26.70;14.65;;;;;;;9.18;52.23;101532.47;4999507;28;21083;-78
2022/03/27 06:25:10;;;;;;;27.70;14.40;;;;;;;9.22;52.33;101536.38;5005661;28;20423;-77
2022/03/27 06:27:36;;;;;;;24.58;14.77;;;;;;;9.32;52.06;101536.78;5006287;28;20549;-77
2022/03/27 06:30:04;;;;;;;20.23;14.38;;;;;;;9.43;51.57;101539.91;5001239;28;20423;-77
2022/03/27 06:32:29;;;;;;;25.27;13.97;;;;;;;9.40;51.31;101535.75;4995249;28;20416;-77
2022/03/27 06:34:58;;;;;;;26.67;14.87;;;;;;;9.48;51.81;101540.94;4994808;28;20413;-78
2022/03/27 06:37:25;;;;;;;26.33;15.20;;;;;;;9.53;51.26;101543.00;4993388;28;20418;-77
2022/03/27 06:39:50;;;;;;;29.13;15.00;;;;;;;9.60;51.30;101546.53;4994340;28;20444;-77
2022/03/27 06:42:16;;;;;;;26.00;15.27;;;;;;;9.78;50.46;101546.69;4987461;28;20412;-77
2022/03/27 06:44:41;;;;;;;21.70;13.90;;;;;;;9.88;50.56;101549.75;4995725;28;20949;-77
2022/03/27 06:47:07;;;;;;;27.83;15.63;;;;;;;9.94;49.88;101554.34;5001763;28;20426;-78
2022/03/27 06:49:32;;;;;;;24.77;14.85;;;;;;;10.03;50.13;101558.47;5003954;28;20411;-77
2022/03/27 06:51:58;;;;;;;26.92;15.73;;;;;;;10.12;49.61;101550.91;4985432;28;20905;-77
2022/03/27 06:54:23;;;;;;;27.10;15.27;;;;;;;10.18;49.73;101564.47;5000411;28;20406;-76
2022/03/27 06:56:48;;;;;;;24.23;15.63;;;;;;;10.20;49.92;101566.97;4994661;28;20412;-77
2022/03/27 06:59:14;;;;;;;24.57;15.30;;;;;;;10.28;50.15;101564.84;5001305;28;20476;-77
2022/03/27 07:04:23;;;;;;;26.40;14.47;;;;;;;10.37;49.92;101560.00;5003683;28;20435;-77
2022/03/27 07:06:48;;;;;;;24.73;15.33;;;;;;;10.46;50.08;101563.28;4990355;28;20515;-77
2022/03/27 07:09:13;;;;;;;25.43;14.60;;;;;;;10.48;49.89;101561.19;5008663;28;20759;-78
2022/03/27 07:11:39;;;;;;;25.38;15.40;;;;;;;10.49;49.28;101557.44;4992939;28;20410;-77
2022/03/27 07:14:04;;;;;;;26.37;15.70;;;;;;;10.52;49.86;101559.69;4992091;28;20413;-77
2022/03/27 07:16:31;;;;;;;28.37;15.47;;;;;;;10.66;49.44;101562.13;5000231;28;20469;-78
2022/03/27 07:18:56;;;;;;;23.03;15.20;;;;;;;10.77;48.77;101558.69;4981284;28;20875;-77
2022/03/27 07:21:21;;;;;;;31.60;17.07;;;;;;;10.85;48.69;101560.31;4995555;28;20457;-77
2022/03/27 07:23:47;;;;;;;29.70;16.70;;;;;;;10.91;47.84;101554.84;4990021;28;20398;-78
2022/03/27 07:26:12;;;;;;;28.97;17.67;;;;;;;10.98;47.69;101562.09;4994241;28;20423;-77
2022/03/27 07:28:37;;;;;;;28.60;17.17;;;;;;;11.06;47.41;101553.69;4994020;28;20900;-77
2022/03/27 07:31:03;;;;;;;27.07;17.23;;;;;;;11.16;47.35;101552.16;4992448;28;20552;-77
2022/03/27 07:33:28;;;;;;;28.90;16.90;;;;;;;11.19;47.01;101554.41;4996159;28;20417;-77
2022/03/27 07:35:54;;;;;;;30.40;17.40;;;;;;;11.21;46.90;101559.59;5000573;28;20411;-77
2022/03/27 07:38:19;;;;;;;25.15;16.70;;;;;;;11.20;46.90;101566.91;4986676;28;20414;-77
2022/03/27 07:40:45;;;;;;;30.67;17.60;;;;;;;11.20;46.90;101558.78;5007412;28;20414;-76
2022/03/27 07:43:10;;;;;;;25.90;17.17;;;;;;;11.21;46.98;101557.72;4997301;28;20412;-77
2022/03/27 07:45:36;;;;;;;29.75;16.38;;;;;;;11.26;47.19;101559.78;5003487;28;20435;-77
2022/03/27 07:48:03;;;;;;;26.83;17.08;;;;;;;11.31;47.24;101557.22;4977359;28;20412;-78
2022/03/27 07:50:32;;;;;;;26.45;16.40;;;;;;;11.39;46.84;101560.47;4987416;28;20469;-77
2022/03/27 07:52:59;;;;;;;34.20;17.13;;;;;;;11.50;46.86;101558.06;4995198;28;20955;-77
2022/03/27 07:55:25;;;;;;;31.75;16.70;;;;;;;11.55;46.16;101566.38;5011954;28;20505;-77
2022/03/27 07:57:50;;;;;;;40.60;16.70;;;;;;;11.64;46.42;101552.28;4990533;28;20964;-77
2022/03/27 08:00:16;;;;;;;26.20;17.23;;;;;;;11.76;46.30;101564.09;4996741;28;20405;-77
2022/03/27 08:02:43;;;;;;;26.03;17.20;;;;;;;11.84;45.89;101552.94;4989972;28;20529;-77
2022/03/27 08:05:10;;;;;;;28.27;17.57;;;;;;;11.98;45.97;101552.78;5005710;28;20411;-78
2022/03/27 08:07:36;;;;;;;32.80;17.13;;;;;;;12.05;45.60;101557.09;4979842;28;20414;-77
2022/03/27 08:10:01;;;;;;;28.30;16.33;;;;;;;12.18;45.27;101548.75;5002234;28;20765;-77
2022/03/27 08:12:27;;;;;;;29.88;17.20;;;;;;;12.29;45.18;101549.84;4996909;28;20415;-77
2022/03/27 08:14:53;;;;;;;28.65;17.13;;;;;;;12.40;44.94;101552.63;4997469;28;20806;-77
2022/03/27 08:17:20;;;;;;;27.52;17.25;;;;;;;12.52;44.93;101549.13;4985230;28;20775;-77
2022/03/27 08:19:47;;;;;;;26.33;15.98;;;;;;;12.56;44.27;101550.31;5003604;28;20411;-77
2022/03/27 08:22:13;;;;;;;29.38;16.35;;;;;;;12.68;44.61;101556.66;5008276;28;20494;-77
2022/03/27 08:24:38;;;;;;;30.13;17.58;;;;;;;12.77;44.01;101558.78;5010244;28;20933;-77
2022/03/27 08:27:04;;;;;;;27.47;16.67;;;;;;;12.83;43.52;101565.19;5001486;28;20898;-77
2022/03/27 08:29:41;;;;;;;31.15;16.92;;;;;;;13.01;43.82;101557.75;4985989;28;20965;-77
2022/03/27 08:32:09;;;;;;;26.60;16.52;;;;;;;13.13;43.14;101555.09;5017993;28;20406;-77
2022/03/27 08:34:37;;;;;;;27.77;16.40;;;;;;;13.36;43.14;101567.91;5002977;28;20433;-77
2022/03/27 08:37:04;;;;;;;28.95;17.00;;;;;;;13.70;42.38;101563.53;5005370;28;20526;-77
2022/03/27 08:39:30;;;;;;;27.50;15.90;;;;;;;13.79;42.23;101560.19;4986451;28;20406;-77
2022/03/27 08:41:56;;;;;;;29.42;17.38;;;;;;;13.91;42.44;101571.06;4987602;28;20850;-77
2022/03/27 08:44:25;;;;;;;26.50;16.38;;;;;;;14.06;41.97;101571.41;4997060;28;20414;-77
2022/03/27 08:46:52;;;;;;;26.10;15.88;;;;;;;14.14;41.75;101564.72;4995287;28;20423;-77
2022/03/27 08:49:17;;;;;;;24.98;16.05;;;;;;;14.33;41.69;101568.91;4998781;28;20474;-78
2022/03/27 08:51:47;;;;;;;25.43;16.23;;;;;;;14.40;41.07;101565.00;4998081;28;20406;-77
2022/03/27 08:54:45;;;;;;;27.95;17.15;;;;;;;14.50;40.86;101567.09;4985046;28;20806;-77
2022/03/27 08:57:38;;;;;;;26.77;16.52;;;;;;;14.62;40.61;101562.41;4970959;28;20512;-77
2022/03/27 09:00:05;;;;;;;29.25;16.48;;;;;;;14.75;40.00;101562.09;4999990;28;20487;-77
2022/03/27 09:02:30;;;;;;;28.65;16.48;;;;;;;14.93;39.86;101558.34;5003463;28;20464;-77
2022/03/27 09:04:57;;;;;;;26.20;16.63;;;;;;;15.15;39.69;101556.50;5009590;28;20407;-78
2022/03/27 09:07:29;;;;;;;24.60;16.05;;;;;;;15.68;39.15;101560.63;5007756;28;20411;-77
2022/03/27 09:09:56;;;;;;;26.23;15.88;;;;;;;15.97;38.02;101562.94;4999088;28;20403;-77
2022/03/27 09:12:22;;;;;;;23.85;15.82;;;;;;;16.33;37.59;101555.19;5008421;28;20408;-78
2022/03/27 09:14:48;;;;;;;25.15;15.55;;;;;;;16.65;36.74;101560.75;5007618;28;20427;-77
2022/03/27 09:17:14;;;;;;;25.67;16.17;;;;;;;16.98;37.09;101560.53;5003166;28;20414;-77
2022/03/27 09:19:43;;;;;;;27.77;16.90;;;;;;;17.25;35.45;101557.75;5001048;28;20436;-77
2022/03/27 09:22:15;;;;;;;27.67;16.10;;;;;;;17.61;34.76;101554.19;4996387;28;20414;-78
2022/03/27 09:24:42;;;;;;;26.40;16.35;;;;;;;18.41;33.74;101561.94;5010544;28;20432;-78
2022/03/27 09:27:09;;;;;;;26.08;17.02;;;;;;;19.07;32.86;101562.91;5016458;28;21069;-77
2022/03/27 09:30:00;;;;;;;23.27;15.13;;;;;;;19.67;32.02;101561.22;4997929;28;20465;-74
2022/03/27 09:32:30;;;;;;;22.60;15.55;;;;;;;20.16;30.91;101562.16;4994045;28;20488;-75
2022/03/27 09:35:10;;;;;;;24.05;16.33;;;;;;;20.84;29.47;101561.53;4994578;28;20414;-78
2022/03/27 09:37:38;;;;;;;23.92;15.80;;;;;;;21.94;28.10;101556.13;4997519;28;20425;-77
2022/03/27 09:40:09;;;;;;;23.02;15.27;;;;;;;23.83;25.41;101553.72;4993485;28;20469;-77
2022/03/27 09:42:39;;;;;;;21.75;15.63;;;;;;;25.35;23.53;101557.50;4990193;28;20835;-75
2022/03/27 09:45:15;;;;;;;20.08;15.45;;;;;;;25.81;22.57;101554.31;5004263;28;20419;-77
2022/03/27 09:47:43;;;;;;;21.98;15.07;;;;;;;26.57;21.56;101555.69;4999582;28;20779;-77
2022/03/27 09:50:34;;;;;;;23.17;16.10;;;;;;;27.22;20.70;101552.72;5003533;28;20415;-77
2022/03/27 09:53:19;;;;;;;20.80;15.32;;;;;;;28.09;20.06;101551.31;4991141;28;20537;-77
2022/03/27 09:55:46;;;;;;;18.57;14.43;;;;;;;28.57;19.53;101539.69;5003817;28;20470;-78
2022/03/27 09:58:12;;;;;;;22.57;14.17;;;;;;;29.95;18.27;101539.09;4992992;28;20402;-77
2022/03/27 10:00:38;;;;;;;20.33;14.65;;;;;;;30.92;16.74;101536.13;4993594;28;20508;-77
2022/03/27 10:03:10;;;;;;;18.52;14.25;;;;;;;31.93;16.19;101539.28;4999198;28;20924;-77
2022/03/27 10:05:37;;;;;;;17.75;13.60;;;;;;;32.82;15.09;101528.94;5008379;28;20498;-77
2022/03/27 10:08:02;;;;;;;20.60;13.40;;;;;;;33.48;14.69;101533.44;5013340;28;20771;-77
2022/03/27 10:10:29;;;;;;;19.63;13.83;;;;;;;33.97;14.29;101539.13;4993898;28;20421;-78
2022/03/27 10:12:58;;;;;;;22.13;15.13;;;;;;;34.48;13.41;101531.03;5000108;28;20416;-77
2022/03/27 10:15:26;;;;;;;18.70;13.82;;;;;;;34.91;13.65;101540.88;4995872;28;20398;-77
2022/03/27 10:18:09;;;;;;;18.27;14.02;;;;;;;35.58;13.12;101529.53;5000149;28;20768;-77
2022/03/27 10:20:36;;;;;;;19.63;13.75;;;;;;;35.80;13.13;101525.72;4981950;28;20897;-77
2022/03/27 10:23:17;;;;;;;20.00;14.57;;;;;;;36.06;12.52;101525.53;4981063;28;20457;-77
2022/03/27 10:25:45;;;;;;;20.45;14.70;;;;;;;35.81;12.06;101528.16;5007048;28;20442;-78
2022/03/27 10:28:11;;;;;;;19.20;14.70;;;;;;;36.01;12.62;101522.25;5002783;28;20942;-76
2022/03/27 10:30:38;;;;;;;16.98;13.27;;;;;;;36.68;12.35;101523.50;5001364;28;20498;-75
2022/03/27 10:33:06;;;;;;;19.67;13.82;;;;;;;36.53;12.11;101520.97;5003585;28;20438;-75
2022/03/27 10:35:37;;;;;;;19.67;13.87;;;;;;;36.79;11.60;101515.88;4994508;28;20473;-76
2022/03/27 10:38:18;;;;;;;18.20;13.43;;;;;;;37.16;11.39;101517.63;5011808;28;20433;-76
2022/03/27 10:41:13;;;;;;;18.25;14.50;;;;;;;36.88;11.37;101519.13;5011015;28;20438;-76
2022/03/27 10:44:00;;;;;;;17.63;13.40;;;;;;;36.71;11.55;101504.94;5012407;28;20395;-76
2022/03/27 10:46:27;;;;;;;18.05;13.82;;;;;;;37.45;11.27;101502.28;5007480;28;20429;-76
2022/03/27 10:49:09;;;;;;;20.60;13.38;;;;;;;37.30;11.46;101506.34;5013957;28;20451;-76
2022/03/27 10:51:38;;;;;;;22.40;14.48;;;;;;;37.71;11.44;101509.63;5009115;28;20406;-76
2022/03/27 10:54:13;;;;;;;19.05;14.05;;;;;;;37.87;11.03;101496.66;4999603;28;20406;-76
2022/03/27 10:56:43;;;;;;;15.10;13.10;;;;;;;38.05;10.59;101496.66;4993967;28;20925;-76
2022/03/27 10:59:40;;;;;;;15.70;12.25;;;;;;;38.21;10.91;101499.84;4996539;28;20440;-77
2022/03/27 11:02:06;;;;;;;16.67;13.45;;;;;;;38.34;10.69;101492.53;4995580;28;20406;-76
2022/03/27 11:04:34;;;;;;;18.03;13.03;;;;;;;37.78;11.41;101495.44;4996547;28;20402;-76
2022/03/27 11:07:20;;;;;;;19.75;12.80;;;;;;;37.95;10.87;101486.16;4999455;28;20449;-76
2022/03/27 11:09:45;;;;;;;16.47;13.27;;;;;;;37.58;11.37;101480.91;4995766;28;20812;-76
2022/03/27 11:12:24;;;;;;;20.27;14.23;;;;;;;37.49;10.96;101485.38;5004963;28;20406;-75
2022/03/27 11:14:52;;;;;;;17.85;13.00;;;;;;;37.94;11.12;101486.59;5001487;28;20433;-76
2022/03/27 11:17:37;;;;;;;21.73;13.70;;;;;;;38.14;11.08;101480.06;5009014;28;20410;-77